Time;durP1;ratioP1;P1;durP2;ratioP2;P2;SDS_P1;SDS_P2;PMS_P1;PMS_P2;Temp;Humidity;BMP_temperature;BMP_pressure;BME280_temperature;BME280_humidity;BME280_pressure;Samples;Min_cycle;Max_cycle;Signal;HPM_P1;HPM_P2
2023/04/15 00:01:35;;;;;;;12.77;5.60;;;;;;;;;;6157849;23;20028;-93
2023/04/15 00:04:10;;;;;;;14.07;5.93;;;;;;;;;;6134949;23;20014;-93
2023/04/15 00:06:38;;;;;;;16.05;6.03;;;;;;;;;;6132991;23;20022;-93
2023/04/15 00:09:04;;;;;;;13.50;5.28;;;;;;;;;;6133623;23;20018;-93
2023/04/15 00:11:34;;;;;;;18.98;5.88;;;;;;;;;;6133461;23;20020;-93
2023/04/15 00:14:00;;;;;;;13.95;5.93;;;;;;;;;;6134618;23;20020;-94
2023/04/15 00:16:27;;;;;;;13.13;6.10;;;;;;;;;;6157474;23;20010;-93
2023/04/15 00:18:53;;;;;;;17.92;7.65;;;;;;;;;;6159188;23;20079;-93
2023/04/15 00:21:23;;;;;;;15.10;6.32;;;;;;;;;;6156620;23;20005;-93
2023/04/15 00:24:01;;;;;;;;;;;;;;;;;;;;;
2023/04/15 00:26:28;;;;;;;16.45;6.25;;;;;;;;;;6157906;23;20114;-93
2023/04/15 00:28:54;;;;;;;17.92;6.18;;;;;;;;;;6132265;23;20511;-94
2023/04/15 00:31:21;;;;;;;19.95;6.40;;;;;;;;;;6155967;23;20423;-94
2023/04/15 00:33:48;;;;;;;21.65;6.55;;;;;;;;;;6132250;23;20005;-93
2023/04/15 00:36:25;;;;;;;14.15;7.07;;;;;;;;;;6132484;23;20099;-93
2023/04/15 00:38:51;;;;;;;15.15;6.30;;;;;;;;;;6157904;23;20427;-93
2023/04/15 00:41:21;;;;;;;16.10;7.60;;;;;;;;;;6132209;23;20432;-93
2023/04/15 00:43:48;;;;;;;20.83;6.85;;;;;;;;;;6157317;23;20411;-92
2023/04/15 00:46:15;;;;;;;20.55;7.20;;;;;;;;;;6133466;23;20021;-92
2023/04/15 00:48:42;;;;;;;17.60;6.68;;;;;;;;;;6131994;23;20010;-92
2023/04/15 00:51:08;;;;;;;16.48;7.05;;;;;;;;;;6158259;23;20462;-92
2023/04/15 00:53:34;;;;;;;15.75;6.68;;;;;;;;;;6131301;23;20025;-93
2023/04/15 00:56:01;;;;;;;15.40;7.50;;;;;;;;;;6133012;23;20013;-92
2023/04/15 00:58:27;;;;;;;13.60;6.10;;;;;;;;;;6131886;23;20014;-94
2023/04/15 01:00:54;;;;;;;17.95;7.07;;;;;;;;;;6131881;23;20024;-94
2023/04/15 01:03:20;;;;;;;18.83;7.00;;;;;;;;;;6131535;23;20471;-94
2023/04/15 01:05:47;;;;;;;18.80;7.43;;;;;;;;;;6132026;23;20045;-93
2023/04/15 01:08:17;;;;;;;20.75;7.72;;;;;;;;;;6134630;23;20018;-93
2023/04/15 01:10:43;;;;;;;14.82;7.30;;;;;;;;;;6159509;23;20009;-93
2023/04/15 01:13:20;;;;;;;16.25;6.88;;;;;;;;;;6134218;23;20096;-92
2023/04/15 01:21:30;;;;;;;22.10;7.38;;;;;;;;;;6101177;23;20017;-93
2023/04/15 01:23:57;;;;;;;16.90;8.02;;;;;;;;;;6157258;23;20037;-93
2023/04/15 01:26:23;;;;;;;18.70;7.88;;;;;;;;;;6134445;23;20024;-94
2023/04/15 01:28:50;;;;;;;19.55;7.70;;;;;;;;;;6156948;23;20010;-94
2023/04/15 01:31:29;;;;;;;;;;;;;;;;;;;;;
2023/04/15 01:33:58;;;;;;;18.10;7.47;;;;;;;;;;6161941;23;20029;-93
2023/04/15 01:36:29;;;;;;;18.27;7.03;;;;;;;;;;6136862;23;20020;-93
2023/04/15 01:38:56;;;;;;;18.17;8.18;;;;;;;;;;6139011;23;20021;-93
2023/04/15 01:41:29;;;;;;;18.40;7.85;;;;;;;;;;6167060;23;20004;-92
2023/04/15 01:44:04;;;;;;;20.92;8.27;;;;;;;;;;6169572;23;20013;-92
2023/04/15 01:46:31;;;;;;;20.17;8.68;;;;;;;;;;6167319;23;20009;-92
2023/04/15 01:49:00;;;;;;;22.65;8.35;;;;;;;;;;6144340;23;20024;-92
2023/04/15 01:51:35;;;;;;;18.70;8.80;;;;;;;;;;6171161;23;20013;-93
2023/04/15 01:54:01;;;;;;;16.45;8.25;;;;;;;;;;6169454;23;20021;-93
2023/04/15 01:56:28;;;;;;;24.50;8.82;;;;;;;;;;6162800;23;20002;-93
2023/04/15 01:58:55;;;;;;;21.65;8.65;;;;;;;;;;6136798;23;20392;-93
2023/04/15 02:01:31;;;;;;;24.52;8.60;;;;;;;;;;6135038;23;20014;-93
2023/04/15 02:03:58;;;;;;;21.17;9.02;;;;;;;;;;6134439;23;20021;-93
2023/04/15 02:06:33;;;;;;;24.80;9.23;;;;;;;;;;6135224;23;20440;-95
2023/04/15 02:08:59;;;;;;;20.92;9.75;;;;;;;;;;6134908;23;20017;-93
2023/04/15 02:11:25;;;;;;;25.88;10.48;;;;;;;;;;6158551;23;20424;-94
2023/04/15 02:13:56;;;;;;;18.67;9.45;;;;;;;;;;6133945;23;20006;-93
2023/04/15 02:16:22;;;;;;;23.30;9.38;;;;;;;;;;6134180;23;20033;-93
2023/04/15 02:18:50;;;;;;;18.40;9.52;;;;;;;;;;6133007;23;20013;-93
2023/04/15 02:21:17;;;;;;;24.17;10.30;;;;;;;;;;6133632;23;20057;-93
2023/04/15 02:23:46;;;;;;;25.77;9.38;;;;;;;;;;6157768;23;20036;-94
2023/04/15 02:26:13;;;;;;;22.80;10.05;;;;;;;;;;6134749;23;20021;-93
2023/04/15 02:28:39;;;;;;;26.33;11.02;;;;;;;;;;6133151;23;20014;-93
2023/04/15 02:31:06;;;;;;;21.90;9.95;;;;;;;;;;6134360;23;20024;-93
2023/04/15 02:33:38;;;;;;;28.90;10.80;;;;;;;;;;6134468;23;20032;-93
2023/04/15 02:36:06;;;;;;;27.92;9.63;;;;;;;;;;6158561;23;20053;-93
2023/04/15 02:38:33;;;;;;;27.55;11.18;;;;;;;;;;6158013;23;20037;-92
2023/04/15 02:41:02;;;;;;;24.90;10.35;;;;;;;;;;6157715;23;20010;-93
2023/04/15 02:43:28;;;;;;;26.67;10.75;;;;;;;;;;6133559;23;20015;-93
2023/04/15 02:45:55;;;;;;;22.75;10.18;;;;;;;;;;6134181;23;20014;-93
2023/04/15 02:48:45;;;;;;;23.10;10.43;;;;;;;;;;6134149;23;20025;-93
2023/04/15 02:51:13;;;;;;;31.73;10.95;;;;;;;;;;6116922;23;20002;-93
2023/04/15 02:53:45;;;;;;;29.92;11.10;;;;;;;;;;6131501;23;20021;-92
2023/04/15 02:56:18;;;;;;;24.60;11.20;;;;;;;;;;6133312;23;20012;-94
2023/04/15 02:59:00;;;;;;;25.27;11.20;;;;;;;;;;6132498;23;20021;-94
2023/04/15 03:01:26;;;;;;;27.38;11.77;;;;;;;;;;6156463;23;20020;-94
2023/04/15 03:03:52;;;;;;;25.45;11.50;;;;;;;;;;6155525;23;20005;-94
2023/04/15 03:06:34;;;;;;;32.13;11.80;;;;;;;;;;6157630;23;20013;-93
2023/04/15 03:09:24;;;;;;;24.15;11.35;;;;;;;;;;6134462;23;20018;-94
2023/04/15 03:11:52;;;;;;;30.13;12.13;;;;;;;;;;6146016;23;20005;-94
2023/04/15 03:14:21;;;;;;;23.45;11.38;;;;;;;;;;6157872;23;20005;-94
2023/04/15 03:17:08;;;;;;;28.65;12.68;;;;;;;;;;6157773;23;20393;-94
2023/04/15 03:19:36;;;;;;;24.60;11.27;;;;;;;;;;6134616;23;20013;-95
2023/04/15 03:22:05;;;;;;;26.33;11.88;;;;;;;;;;6133736;23;20444;-93
2023/04/15 03:24:31;;;;;;;25.70;12.18;;;;;;;;;;6133670;23;20014;-94
2023/04/15 03:27:08;;;;;;;26.65;12.45;;;;;;;;;;6157374;23;20013;-93
2023/04/15 03:29:34;;;;;;;29.42;11.55;;;;;;;;;;6133597;23;20017;-93
2023/04/15 03:32:00;;;;;;;32.47;12.32;;;;;;;;;;6133788;23;20012;-93
2023/04/15 03:34:28;;;;;;;27.48;12.98;;;;;;;;;;6159436;23;20478;-93
2023/04/15 03:36:56;;;;;;;29.95;12.07;;;;;;;;;;6133546;23;20025;-94
2023/04/15 03:39:38;;;;;;;28.20;12.90;;;;;;;;;;6132822;23;20348;-93
2023/04/15 03:42:04;;;;;;;27.40;13.30;;;;;;;;;;6158202;23;20037;-94
2023/04/15 03:44:32;;;;;;;29.42;13.30;;;;;;;;;;6157508;23;20017;-93
2023/04/15 03:46:58;;;;;;;26.10;12.45;;;;;;;;;;6157816;23;20009;-94
2023/04/15 03:49:24;;;;;;;24.75;12.25;;;;;;;;;;6133991;23;20068;-93
2023/04/15 03:51:51;;;;;;;28.63;12.63;;;;;;;;;;6134003;23;20069;-94
2023/04/15 03:54:17;;;;;;;23.55;10.90;;;;;;;;;;6134723;23;20026;-94
2023/04/15 03:56:49;;;;;;;27.63;12.40;;;;;;;;;;6134711;23;20109;-93
2023/04/15 03:59:16;;;;;;;23.23;12.32;;;;;;;;;;6135370;23;20041;-93
2023/04/15 04:01:42;;;;;;;23.38;11.38;;;;;;;;;;6159408;23;20015;-92
2023/04/15 04:04:08;;;;;;;25.25;10.98;;;;;;;;;;6134526;23;20014;-93
2023/04/15 04:06:34;;;;;;;30.83;10.98;;;;;;;;;;6133245;23;20117;-92
2023/04/15 04:09:01;;;;;;;27.35;11.63;;;;;;;;;;6134318;23;20028;-93
2023/04/15 04:11:30;;;;;;;25.25;11.55;;;;;;;;;;6158578;23;20009;-92
2023/04/15 04:13:57;;;;;;;31.30;12.88;;;;;;;;;;6158965;23;20021;-93
2023/04/15 04:16:24;;;;;;;25.10;11.27;;;;;;;;;;6157692;23;20580;-93
2023/04/15 04:19:13;;;;;;;30.63;11.95;;;;;;;;;;6134665;23;20468;-92
2023/04/15 04:21:46;;;;;;;;;;;;;;;;;;6157857;23;20028;-94
2023/04/15 04:24:12;;;;;;;27.08;10.20;;;;;;;;;;6159247;23;19905;-94
2023/04/15 04:26:46;;;;;;;25.85;10.95;;;;;;;;;;6133999;23;20013;-94
2023/04/15 04:29:12;;;;;;;28.30;12.00;;;;;;;;;;6156958;23;20448;-94
2023/04/15 04:31:38;;;;;;;28.20;12.02;;;;;;;;;;6133361;23;20049;-94
2023/04/15 04:34:04;;;;;;;24.25;12.25;;;;;;;;;;6134831;23;20344;-93
2023/04/15 04:36:31;;;;;;;25.63;11.52;;;;;;;;;;6133109;23;20013;-94
2023/04/15 04:38:57;;;;;;;30.85;12.05;;;;;;;;;;6134392;23;20118;-93
2023/04/15 04:41:24;;;;;;;22.70;10.93;;;;;;;;;;6158742;23;20010;-93
2023/04/15 04:43:50;;;;;;;23.73;11.35;;;;;;;;;;6156676;23;20036;-94
2023/04/15 04:46:16;;;;;;;22.80;11.48;;;;;;;;;;6133123;23;20014;-93
2023/04/15 04:48:42;;;;;;;25.73;11.32;;;;;;;;;;6131826;23;20068;-93
2023/04/15 04:51:08;;;;;;;30.13;11.38;;;;;;;;;;6133125;23;20006;-93
2023/04/15 04:53:36;;;;;;;25.50;11.57;;;;;;;;;;6132561;23;20095;-93
2023/04/15 04:56:03;;;;;;;27.83;11.82;;;;;;;;;;6158074;23;20253;-93
2023/04/15 04:58:29;;;;;;;26.02;11.48;;;;;;;;;;6132627;23;20025;-93
2023/04/15 05:00:57;;;;;;;26.88;11.73;;;;;;;;;;6132121;23;20013;-92
2023/04/15 05:03:23;;;;;;;23.13;10.77;;;;;;;;;;6131742;23;20018;-93
2023/04/15 05:05:49;;;;;;;39.63;16.55;;;;;;;;;;6156789;23;20010;-93
2023/04/15 05:08:15;;;;;;;53.42;22.30;;;;;;;;;;6131700;23;20010;-93
2023/04/15 05:10:42;;;;;;;38.13;18.92;;;;;;;;;;6133336;23;20009;-92
2023/04/15 05:13:11;;;;;;;37.92;15.63;;;;;;;;;;6131937;23;20006;-94
2023/04/15 05:15:42;;;;;;;30.77;12.65;;;;;;;;;;6157160;23;20187;-93
2023/04/15 05:18:14;;;;;;;26.25;12.65;;;;;;;;;;6157911;23;20006;-93
2023/04/15 05:20:41;;;;;;;29.25;13.43;;;;;;;;;;6158460;23;20424;-93
2023/04/15 05:23:16;;;;;;;36.08;14.23;;;;;;;;;;6133281;23;20013;-93
2023/04/15 05:25:42;;;;;;;35.70;14.07;;;;;;;;;;6135458;23;20020;-93
2023/04/15 05:28:09;;;;;;;34.53;14.18;;;;;;;;;;6132674;23;20500;-93
2023/04/15 05:30:39;;;;;;;29.60;12.80;;;;;;;;;;6132635;23;20376;-93
2023/04/15 05:33:09;;;;;;;34.60;14.75;;;;;;;;;;6157466;23;20522;-93
2023/04/15 05:35:35;;;;;;;32.28;13.43;;;;;;;;;;6158068;23;20002;-92
2023/04/15 05:38:31;;;;;;;25.52;12.77;;;;;;;;;;6136456;23;20096;-93
2023/04/15 05:41:24;;;;;;;31.92;13.95;;;;;;;;;;6144124;23;20088;-93
2023/04/15 05:44:14;;;;;;;30.70;13.52;;;;;;;;;;6158009;23;20025;-93
2023/04/15 05:46:41;;;;;;;28.77;13.00;;;;;;;;;;6142423;23;20161;-93
2023/04/15 05:49:07;;;;;;;29.85;13.65;;;;;;;;;;6165951;23;20010;-93
2023/04/15 05:51:33;;;;;;;37.30;13.30;;;;;;;;;;6167436;23;20010;-94
2023/04/15 05:54:05;;;;;;;29.58;14.15;;;;;;;;;;6146018;23;20069;-93
2023/04/15 05:56:31;;;;;;;28.73;13.60;;;;;;;;;;6144335;23;20020;-93
2023/04/15 05:58:57;;;;;;;28.55;12.93;;;;;;;;;;6168193;23;20112;-91
2023/04/15 06:01:24;;;;;;;29.20;13.73;;;;;;;;;;6169159;23;20052;-92
2023/04/15 06:03:52;;;;;;;27.05;12.52;;;;;;;;;;6148085;23;20017;-94
2023/04/15 06:06:20;;;;;;;28.17;12.88;;;;;;;;;;6139439;23;20009;-94
2023/04/15 06:08:46;;;;;;;25.98;10.40;;;;;;;;;;6141093;23;20073;-93
2023/04/15 06:11:12;;;;;;;24.60;11.15;;;;;;;;;;6138284;23;20044;-91
2023/04/15 06:13:38;;;;;;;22.27;11.02;;;;;;;;;;6162066;23;20009;-93
2023/04/15 06:16:04;;;;;;;21.27;9.95;;;;;;;;;;6138641;23;20101;-92
2023/04/15 06:18:31;;;;;;;22.30;11.23;;;;;;;;;;6139689;23;20013;-93
2023/04/15 06:20:57;;;;;;;25.80;10.13;;;;;;;;;;6137063;23;20077;-91
2023/04/15 06:23:26;;;;;;;21.63;10.20;;;;;;;;;;6141738;23;20074;-93
2023/04/15 06:25:52;;;;;;;22.27;10.77;;;;;;;;;;6140065;23;20029;-93
2023/04/15 06:28:18;;;;;;;22.30;9.98;;;;;;;;;;6136826;23;20005;-93
2023/04/15 06:30:45;;;;;;;16.90;9.32;;;;;;;;;;6162993;23;20006;-92
2023/04/15 06:33:11;;;;;;;16.52;9.13;;;;;;;;;;6138419;23;20013;-92
2023/04/15 06:35:38;;;;;;;13.52;7.32;;;;;;;;;;6138565;23;20017;-92
2023/04/15 06:38:05;;;;;;;21.10;9.70;;;;;;;;;;6163919;23;20005;-92
2023/04/15 06:40:31;;;;;;;15.98;8.05;;;;;;;;;;6135982;23;20006;-92
2023/04/15 06:42:57;;;;;;;17.00;8.30;;;;;;;;;;6134638;23;20072;-93
2023/04/15 06:45:24;;;;;;;21.77;8.15;;;;;;;;;;6137469;23;20061;-92
2023/04/15 06:47:50;;;;;;;18.60;8.18;;;;;;;;;;6133341;23;20096;-92
2023/04/15 06:50:20;;;;;;;19.33;8.07;;;;;;;;;;6157271;23;20226;-92
2023/04/15 06:52:56;;;;;;;16.25;7.85;;;;;;;;;;6133593;23;20010;-93
2023/04/15 06:55:22;;;;;;;;;;;;;;;;;;6156648;23;20028;-94
2023/04/15 06:57:57;;;;;;;14.68;6.80;;;;;;;;;;6157089;23;19900;-93
2023/04/15 07:00:24;;;;;;;16.85;7.05;;;;;;;;;;6139412;23;20014;-93
2023/04/15 07:02:51;;;;;;;14.70;6.68;;;;;;;;;;6159249;23;20006;-92
2023/04/15 07:05:38;;;;;;;15.68;7.72;;;;;;;;;;6156357;23;20013;-93
2023/04/15 07:08:08;;;;;;;15.50;7.40;;;;;;;;;;6161646;23;20010;-93
2023/04/15 07:10:34;;;;;;;15.10;7.32;;;;;;;;;;6159215;23;20017;-93
2023/04/15 07:13:00;;;;;;;11.52;6.72;;;;;;;;;;6162955;23;20006;-94
2023/04/15 07:15:27;;;;;;;13.10;6.22;;;;;;;;;;6160327;23;19997;-93
2023/04/15 07:17:53;;;;;;;12.50;6.55;;;;;;;;;;6156999;23;20473;-93
2023/04/15 07:20:20;;;;;;;18.20;7.75;;;;;;;;;;6158346;23;20006;-93
2023/04/15 07:22:49;;;;;;;15.25;7.00;;;;;;;;;;6134607;23;20017;-93
2023/04/15 07:25:16;;;;;;;15.18;7.18;;;;;;;;;;6132196;23;20068;-94
2023/04/15 07:27:45;;;;;;;13.07;6.22;;;;;;;;;;6132511;23;20006;-94
2023/04/15 07:30:12;;;;;;;15.85;7.28;;;;;;;;;;6133006;23;20013;-92
2023/04/15 07:32:42;;;;;;;13.43;6.55;;;;;;;;;;6157056;23;20008;-93
2023/04/15 07:35:09;;;;;;;15.48;6.43;;;;;;;;;;6162509;23;20400;-94
2023/04/15 07:37:42;;;;;;;15.45;7.15;;;;;;;;;;6159114;23;20109;-93
2023/04/15 07:40:18;;;;;;;16.60;7.78;;;;;;;;;;6135012;23;20009;-93
2023/04/15 07:42:51;;;;;;;11.35;6.35;;;;;;;;;;6164986;23;20013;-92
2023/04/15 07:45:18;;;;;;;12.10;6.10;;;;;;;;;;6161065;23;20020;-93
2023/04/15 07:47:54;;;;;;;11.45;6.50;;;;;;;;;;6155728;23;20016;-93
2023/04/15 07:50:22;;;;;;;10.77;6.28;;;;;;;;;;6133955;23;20011;-92
2023/04/15 07:52:48;;;;;;;12.05;6.13;;;;;;;;;;6134090;23;20009;-92
2023/04/15 07:55:18;;;;;;;12.52;6.00;;;;;;;;;;6133670;23;20028;-93
2023/04/15 07:57:54;;;;;;;15.82;6.53;;;;;;;;;;6133592;23;20020;-93
2023/04/15 08:00:20;;;;;;;;;;;;;;;;;;6134163;23;20056;-92
2023/04/15 08:02:56;;;;;;;16.20;6.20;;;;;;;;;;6160836;23;19904;-93
2023/04/15 08:05:22;;;;;;;14.90;6.00;;;;;;;;;;6134235;23;20017;-93
2023/04/15 08:07:57;;;;;;;11.50;5.32;;;;;;;;;;6144314;23;20435;-93
2023/04/15 08:10:26;;;;;;;14.75;5.68;;;;;;;;;;6159619;23;20018;-93
2023/04/15 08:12:55;;;;;;;7.45;4.85;;;;;;;;;;6157438;23;20029;-92
2023/04/15 08:15:21;;;;;;;8.55;4.97;;;;;;;;;;6136939;23;20013;-93
2023/04/15 08:17:48;;;;;;;17.67;6.72;;;;;;;;;;6136563;23;20013;-93
2023/04/15 08:20:14;;;;;;;10.73;5.18;;;;;;;;;;6133736;23;20072;-93
2023/04/15 08:22:40;;;;;;;11.55;4.88;;;;;;;;;;6133275;23;20005;-93
2023/04/15 08:25:10;;;;;;;11.45;4.57;;;;;;;;;;6132761;23;20017;-93
2023/04/15 08:27:36;;;;;;;12.40;5.53;;;;;;;;;;6133321;23;20014;-92
2023/04/15 08:30:03;;;;;;;11.98;5.07;;;;;;;;;;6133359;23;20061;-93
2023/04/15 08:32:29;;;;;;;12.27;4.40;;;;;;;;;;6140691;23;20463;-93
2023/04/15 08:34:55;;;;;;;9.10;4.00;;;;;;;;;;6137139;23;20009;-93
2023/04/15 08:37:22;;;;;;;4.43;2.70;;;;;;;;;;6134267;23;20014;-93
2023/04/15 08:39:51;;;;;;;14.60;4.13;;;;;;;;;;6134268;23;20020;-93
2023/04/15 08:42:31;;;;;;;7.00;3.72;;;;;;;;;;6133850;23;20693;-92
2023/04/15 08:45:00;;;;;;;11.43;3.92;;;;;;;;;;6156390;23;20013;-93
2023/04/15 08:48:05;;;;;;;8.63;3.25;;;;;;;;;;6157484;23;20470;-93
2023/04/15 08:50:32;;;;;;;8.57;2.88;;;;;;;;;;6045089;23;20007;-93
2023/04/15 08:52:59;;;;;;;5.18;2.58;;;;;;;;;;6158554;23;20012;-92
2023/04/15 08:55:49;;;;;;;4.97;2.25;;;;;;;;;;6161719;23;20017;-93
2023/04/15 08:58:26;;;;;;;5.72;2.50;;;;;;;;;;6162817;23;20449;-93
2023/04/15 09:01:18;;;;;;;;;;;;;;;;;;;;;
2023/04/15 09:03:49;;;;;;;8.70;2.65;;;;;;;;;;6147132;23;20034;-93
2023/04/15 09:06:25;;;;;;;6.70;2.50;;;;;;;;;;6164128;23;20055;-93
2023/04/15 09:08:51;;;;;;;5.07;2.42;;;;;;;;;;6156513;23;20075;-92
2023/04/15 09:11:19;;;;;;;4.43;2.22;;;;;;;;;;6169223;23;20020;-93
2023/04/15 09:13:45;;;;;;;10.52;2.42;;;;;;;;;;6157985;23;20005;-93
2023/04/15 09:16:17;;;;;;;8.38;2.58;;;;;;;;;;6134894;23;20249;-94
2023/04/15 09:18:44;;;;;;;7.60;2.60;;;;;;;;;;6135056;23;20017;-93
2023/04/15 09:21:14;;;;;;;4.80;2.08;;;;;;;;;;6133664;23;20018;-94
2023/04/15 09:23:53;;;;;;;3.92;1.45;;;;;;;;;;6157412;23;20017;-93
2023/04/15 09:26:22;;;;;;;1.85;1.58;;;;;;;;;;6158038;23;20009;-93
2023/04/15 09:28:49;;;;;;;2.58;1.73;;;;;;;;;;6159814;23;20013;-93
2023/04/15 09:31:16;;;;;;;2.42;1.60;;;;;;;;;;6159364;23;20006;-93
2023/04/15 09:33:58;;;;;;;3.10;1.70;;;;;;;;;;6135161;23;20013;-92
2023/04/15 09:36:24;;;;;;;5.70;1.90;;;;;;;;;;6158945;23;20366;-94
2023/04/15 09:38:58;;;;;;;3.92;1.70;;;;;;;;;;6135456;23;20023;-93
2023/04/15 09:41:34;;;;;;;3.22;1.60;;;;;;;;;;6159795;23;20447;-93
2023/04/15 09:44:00;;;;;;;4.10;1.63;;;;;;;;;;6136552;23;20035;-94
2023/04/15 09:46:44;;;;;;;3.70;1.80;;;;;;;;;;6142089;23;20092;-94
2023/04/15 09:49:14;;;;;;;3.00;1.70;;;;;;;;;;6169311;23;20013;-94
2023/04/15 09:51:41;;;;;;;6.63;1.98;;;;;;;;;;6148893;23;19994;-93
2023/04/15 09:54:10;;;;;;;4.22;1.80;;;;;;;;;;6174680;23;20021;-92
2023/04/15 09:56:37;;;;;;;8.20;1.77;;;;;;;;;;6149516;23;20006;-94
2023/04/15 09:59:05;;;;;;;11.70;1.88;;;;;;;;;;6175811;23;20009;-92
2023/04/15 10:01:31;;;;;;;2.55;1.70;;;;;;;;;;6174609;23;20016;-93
2023/04/15 10:03:57;;;;;;;3.60;1.83;;;;;;;;;;6174294;23;20069;-92
2023/04/15 10:06:25;;;;;;;5.63;2.15;;;;;;;;;;6144922;23;20482;-93
2023/04/15 10:08:52;;;;;;;3.70;1.65;;;;;;;;;;6170025;23;20033;-93
2023/04/15 10:11:19;;;;;;;5.00;1.17;;;;;;;;;;6138758;23;20005;-93
2023/04/15 10:14:04;;;;;;;3.05;1.92;;;;;;;;;;6162771;23;20001;-92
2023/04/15 10:16:32;;;;;;;3.97;1.20;;;;;;;;;;6164900;23;20013;-93
2023/04/15 10:19:01;;;;;;;7.32;1.38;;;;;;;;;;6163560;23;20061;-92
2023/04/15 10:21:28;;;;;;;4.45;1.77;;;;;;;;;;6162768;23;20032;-93
2023/04/15 10:24:13;;;;;;;7.25;1.50;;;;;;;;;;6160450;23;20009;-93
2023/04/15 10:26:42;;;;;;;6.53;2.03;;;;;;;;;;6137946;23;20032;-93
2023/04/15 10:29:13;;;;;;;6.65;1.65;;;;;;;;;;6164981;23;20015;-93
2023/04/15 10:32:06;;;;;;;5.85;1.80;;;;;;;;;;6157852;23;20257;-93
2023/04/15 10:34:33;;;;;;;5.00;2.30;;;;;;;;;;6111762;23;20010;-93
2023/04/15 10:37:23;;;;;;;3.92;1.70;;;;;;;;;;6134823;23;20037;-92
2023/04/15 10:39:55;;;;;;;3.95;2.00;;;;;;;;;;6155710;23;20087;-91
2023/04/15 10:42:29;;;;;;;6.35;2.30;;;;;;;;;;6142102;23;20044;-94
2023/04/15 10:45:03;;;;;;;4.30;1.90;;;;;;;;;;6166188;23;20009;-92
2023/04/15 10:47:58;;;;;;;9.13;3.22;;;;;;;;;;6167355;23;20009;-96
2023/04/15 10:50:55;;;;;;;;;;;;;;;;;;;;;
2023/04/15 10:53:48;;;;;;;7.28;3.03;;;;;;;;;;6174758;23;20006;-96
2023/04/15 10:56:42;;;;;;;6.65;2.22;;;;;;;;;;6174236;23;20002;-95
2023/04/15 10:59:12;;;;;;;5.35;2.10;;;;;;;;;;6176193;23;20010;-93
2023/04/15 11:02:21;;;;;;;5.95;2.35;;;;;;;;;;6176250;23;20020;-95
2023/04/15 11:08:00;;;;;;;8.15;2.30;;;;;;;;;;6011020;23;20022;-94
2023/04/15 11:13:56;;;;;;;9.10;1.88;;;;;;;;;;5991248;23;20052;-95
2023/04/15 11:16:22;;;;;;;8.77;2.10;;;;;;;;;;6094228;23;20034;-94
2023/04/15 11:18:59;;;;;;;3.22;1.95;;;;;;;;;;6104294;23;20006;-94
2023/04/15 11:21:26;;;;;;;9.35;1.85;;;;;;;;;;6081185;23;20014;-94
2023/04/15 11:23:53;;;;;;;5.82;2.22;;;;;;;;;;6080258;23;20172;-95
2023/04/15 11:26:19;;;;;;;5.53;1.52;;;;;;;;;;6150591;23;20010;-95
2023/04/15 11:28:46;;;;;;;12.05;1.73;;;;;;;;;;6168395;23;20088;-95
2023/04/15 11:31:34;;;;;;;10.88;2.30;;;;;;;;;;6171309;23;20005;-94
2023/04/15 11:34:04;;;;;;;6.43;1.70;;;;;;;;;;6171208;23;20008;-95
2023/04/15 11:36:37;;;;;;;10.77;2.20;;;;;;;;;;6174739;23;20002;-95
2023/04/15 12:09:49;;;;;;;6.15;2.03;;;;;;;;;;6285187;22;20412;-90
2023/04/15 12:12:34;;;;;;;;;;;;;;;;;;;;;
2023/04/15 12:15:01;;;;;;;7.13;1.75;;;;;;;;;;6286976;22;20023;-91
2023/04/15 12:17:34;;;;;;;11.80;1.65;;;;;;;;;;6284575;22;20053;-90
2023/04/15 12:20:03;;;;;;;7.97;2.08;;;;;;;;;;6258569;22;20011;-90
2023/04/15 12:22:33;;;;;;;5.50;2.97;;;;;;;;;;6263721;22;20098;-89
2023/04/15 12:28:16;;;;;;;5.10;1.58;;;;;;;;;;6212589;23;20003;-95
2023/04/15 12:30:52;;;;;;;7.28;1.52;;;;;;;;;;6278192;22;20182;-93
2023/04/15 12:33:22;;;;;;;9.05;1.88;;;;;;;;;;6284336;22;20485;-91
2023/04/15 12:38:25;;;;;;;14.70;2.25;;;;;;;;;;6198367;22;20431;-96
2023/04/15 12:41:01;;;;;;;18.27;2.88;;;;;;;;;;6144590;23;20009;-96
2023/04/15 12:43:38;;;;;;;;;;;;;;;;;;6195319;23;20032;-96
2023/04/15 12:46:05;;;;;;;4.35;1.48;;;;;;;;;;6172667;23;19924;-96
2023/04/15 12:48:51;;;;;;;;;;;;;;;;;;;;;
2023/04/15 12:51:21;;;;;;;6.43;1.60;;;;;;;;;;6203491;23;20031;-96
2023/04/15 12:53:49;;;;;;;13.73;1.83;;;;;;;;;;6152662;23;20005;-96
2023/04/15 12:56:25;;;;;;;5.15;1.58;;;;;;;;;;6203722;23;20025;-96
2023/04/15 12:58:52;;;;;;;7.25;1.50;;;;;;;;;;6177117;23;20012;-96
2023/04/15 13:01:22;;;;;;;10.63;2.30;;;;;;;;;;6181828;23;19997;-96
2023/04/15 13:03:52;;;;;;;8.30;1.90;;;;;;;;;;6104813;23;20010;-96
2023/04/15 13:06:24;;;;;;;6.97;1.60;;;;;;;;;;6178807;23;20001;-96
2023/04/15 13:08:56;;;;;;;9.75;2.28;;;;;;;;;;6155259;23;20016;-96
2023/04/15 13:11:29;;;;;;;11.73;2.08;;;;;;;;;;6180519;23;20043;-96
2023/04/15 13:14:25;;;;;;;16.42;2.00;;;;;;;;;;6157812;23;20039;-95
2023/04/15 13:16:52;;;;;;;10.38;1.88;;;;;;;;;;6162303;23;20009;-92
2023/04/15 13:19:19;;;;;;;4.32;1.45;;;;;;;;;;6161757;23;20013;-92
2023/04/15 13:21:45;;;;;;;5.90;1.98;;;;;;;;;;6162237;23;20009;-92
2023/04/15 13:24:11;;;;;;;7.78;2.10;;;;;;;;;;6134848;23;20013;-92
2023/04/15 13:26:38;;;;;;;9.68;2.22;;;;;;;;;;6136413;23;20039;-92
2023/04/15 13:29:04;;;;;;;18.27;2.15;;;;;;;;;;6134815;23;20462;-92
2023/04/15 13:31:46;;;;;;;12.20;1.95;;;;;;;;;;6135744;23;20338;-92
2023/04/15 13:34:12;;;;;;;10.95;2.72;;;;;;;;;;6134576;23;20447;-93
2023/04/15 13:36:50;;;;;;;11.77;2.00;;;;;;;;;;6161094;22;20005;-92
2023/04/15 13:39:21;;;;;;;10.07;2.55;;;;;;;;;;6138006;23;20356;-91
2023/04/15 13:41:47;;;;;;;5.97;1.67;;;;;;;;;;6135256;23;20720;-92
2023/04/15 13:44:16;;;;;;;14.82;2.03;;;;;;;;;;6134295;23;20036;-91
2023/04/15 13:46:42;;;;;;;10.40;1.98;;;;;;;;;;6159404;23;20009;-92
2023/04/15 13:49:08;;;;;;;11.45;2.30;;;;;;;;;;6161300;23;20091;-92
2023/04/15 13:51:35;;;;;;;8.43;2.13;;;;;;;;;;6133685;23;20020;-93
2023/04/15 13:54:04;;;;;;;10.43;2.20;;;;;;;;;;6134898;23;20017;-92
2023/04/15 13:56:34;;;;;;;10.43;3.38;;;;;;;;;;6135086;23;20009;-91
2023/04/15 13:59:01;;;;;;;6.90;2.10;;;;;;;;;;6137154;23;20048;-93
2023/04/15 14:01:28;;;;;;;5.60;2.08;;;;;;;;;;6135261;23;20017;-91
2023/04/15 14:03:54;;;;;;;14.82;2.50;;;;;;;;;;6136042;23;20019;-92
2023/04/15 14:06:22;;;;;;;9.95;2.63;;;;;;;;;;6158366;23;20033;-92
2023/04/15 14:08:49;;;;;;;21.13;4.45;;;;;;;;;;6160304;23;20009;-89
2023/04/15 14:11:15;;;;;;;12.50;2.60;;;;;;;;;;6159375;23;20057;-91
2023/04/15 14:13:41;;;;;;;12.43;2.22;;;;;;;;;;6186845;23;20007;-90
2023/04/15 14:16:08;;;;;;;13.68;2.90;;;;;;;;;;6134444;23;20017;-90
2023/04/15 14:18:36;;;;;;;10.77;2.47;;;;;;;;;;6137811;23;20013;-90
2023/04/15 14:21:06;;;;;;;12.65;3.03;;;;;;;;;;6138763;23;20009;-90
2023/04/15 14:23:32;;;;;;;8.52;2.42;;;;;;;;;;6138603;23;20031;-90
2023/04/15 14:25:58;;;;;;;14.75;2.70;;;;;;;;;;6136305;23;20009;-90
2023/04/15 14:28:31;;;;;;;10.38;2.70;;;;;;;;;;6159822;23;20005;-90
2023/04/15 14:30:57;;;;;;;17.52;3.10;;;;;;;;;;6136603;23;20090;-91
2023/04/15 14:33:23;;;;;;;13.02;2.92;;;;;;;;;;6137851;23;20017;-91
2023/04/15 14:35:50;;;;;;;9.27;2.60;;;;;;;;;;6138160;23;20056;-91
2023/04/15 14:38:16;;;;;;;12.38;2.70;;;;;;;;;;6177127;23;20017;-91
2023/04/15 14:40:42;;;;;;;17.90;2.75;;;;;;;;;;6243105;23;20095;-90
2023/04/15 14:43:08;;;;;;;20.42;2.85;;;;;;;;;;6242317;23;20058;-91
2023/04/15 14:45:35;;;;;;;9.30;2.97;;;;;;;;;;6241158;23;20015;-90
2023/04/15 14:48:01;;;;;;;13.63;2.67;;;;;;;;;;6242383;23;20028;-91
2023/04/15 14:50:27;;;;;;;19.67;3.33;;;;;;;;;;6218759;23;20039;-90
2023/04/15 14:52:53;;;;;;;13.25;2.88;;;;;;;;;;6217857;23;20096;-91
2023/04/15 14:55:20;;;;;;;15.38;3.08;;;;;;;;;;6242787;23;20011;-91
2023/04/15 14:57:49;;;;;;;9.00;3.17;;;;;;;;;;6190876;23;20083;-92
2023/04/15 15:00:18;;;;;;;17.92;2.95;;;;;;;;;;6218470;23;20024;-93
2023/04/15 15:02:46;;;;;;;14.77;2.72;;;;;;;;;;6220098;23;20013;-90
2023/04/15 15:05:13;;;;;;;15.60;3.53;;;;;;;;;;6222711;23;20005;-91
2023/04/15 15:07:46;;;;;;;8.13;2.90;;;;;;;;;;6244767;23;20013;-91
2023/04/15 15:10:12;;;;;;;10.70;3.40;;;;;;;;;;6243281;23;20066;-91
2023/04/15 15:12:39;;;;;;;17.30;3.17;;;;;;;;;;6217745;23;20009;-92
2023/04/15 15:15:05;;;;;;;15.65;3.20;;;;;;;;;;6217760;23;20043;-91
2023/04/15 15:17:34;;;;;;;14.50;3.45;;;;;;;;;;6217013;23;20457;-91
2023/04/15 15:20:02;;;;;;;17.10;3.88;;;;;;;;;;6241928;23;20347;-90
2023/04/15 15:22:34;;;;;;;15.48;3.38;;;;;;;;;;6243436;23;20033;-91
2023/04/15 15:25:01;;;;;;;18.73;3.80;;;;;;;;;;6216157;23;20434;-90
2023/04/15 15:27:27;;;;;;;22.88;3.22;;;;;;;;;;6216729;23;20016;-91
2023/04/15 15:30:02;;;;;;;17.02;3.13;;;;;;;;;;6215721;23;20112;-91
2023/04/15 15:32:31;;;;;;;20.48;3.35;;;;;;;;;;6242429;23;20005;-91
2023/04/15 15:34:57;;;;;;;34.08;3.63;;;;;;;;;;6218421;23;20012;-91
2023/04/15 15:37:24;;;;;;;15.65;3.53;;;;;;;;;;6242688;22;20027;-91
2023/04/15 15:39:51;;;;;;;19.45;4.22;;;;;;;;;;6240568;23;20177;-91
2023/04/15 15:42:27;;;;;;;20.92;3.92;;;;;;;;;;6241422;23;20164;-91